Time;durP1;ratioP1;P1;durP2;ratioP2;P2;SDS_P1;SDS_P2;PMS_P1;PMS_P2;Temp;Humidity;BMP_temperature;BMP_pressure;BME280_temperature;BME280_humidity;BME280_pressure;Samples;Min_cycle;Max_cycle;Signal;HPM_P1;HPM_P2
2022/12/10 00:00:18;;;;;;;50.22;22.73;;;-0.70;99.90;;;;;;5060740;28;20029;-88
2022/12/10 00:02:43;;;;;;;53.58;22.88;;;-0.80;99.90;;;;;;5055808;28;20431;-89
2022/12/10 00:05:09;;;;;;;57.17;22.40;;;-0.70;99.90;;;;;;5060868;28;20032;-88
2022/12/10 00:07:34;;;;;;;50.45;22.90;;;-0.80;99.90;;;;;;5070203;28;20028;-88
2022/12/10 00:10:00;;;;;;;50.60;22.40;;;-0.80;99.90;;;;;;5055801;28;20038;-88
2022/12/10 00:12:26;;;;;;;47.63;20.90;;;-0.70;99.90;;;;;;5074988;28;20059;-88
2022/12/10 00:14:52;;;;;;;53.17;24.10;;;-0.80;99.90;;;;;;5064363;28;20108;-88
2022/12/10 00:17:17;;;;;;;53.13;24.15;;;-0.80;99.90;;;;;;5073361;28;20036;-88
2022/12/10 00:19:43;;;;;;;53.97;23.05;;;-0.70;99.90;;;;;;5065587;28;20033;-88
2022/12/10 00:22:09;;;;;;;52.42;23.92;;;-0.80;99.90;;;;;;5057960;28;20032;-88
2022/12/10 00:24:34;;;;;;;56.35;22.58;;;-0.80;99.90;;;;;;5072610;28;20040;-88
2022/12/10 00:27:00;;;;;;;57.65;26.02;;;-0.70;99.90;;;;;;5056077;28;20028;-88
2022/12/10 00:29:26;;;;;;;56.45;25.08;;;-0.70;99.90;;;;;;5057700;28;20060;-88
2022/12/10 00:31:51;;;;;;;54.70;24.63;;;-0.70;99.90;;;;;;5057466;28;20017;-88
2022/12/10 00:34:17;;;;;;;52.20;24.58;;;-0.60;99.90;;;;;;5065100;28;20120;-88
2022/12/10 00:36:46;;;;;;;55.67;24.13;;;-0.70;99.90;;;;;;5073725;28;20093;-88
2022/12/10 00:39:16;;;;;;;61.10;25.48;;;-0.70;99.90;;;;;;5068403;28;20027;-88
2022/12/10 00:41:43;;;;;;;54.22;24.45;;;-0.70;99.90;;;;;;5057790;28;20036;-88
2022/12/10 00:44:09;;;;;;;56.88;26.10;;;-0.70;99.90;;;;;;5050596;28;20083;-88
2022/12/10 00:46:35;;;;;;;51.30;24.67;;;-0.80;99.90;;;;;;5080300;28;20029;-88
2022/12/10 00:49:01;;;;;;;52.40;24.10;;;-0.70;99.90;;;;;;5070613;28;20036;-87
2022/12/10 00:51:27;;;;;;;52.83;24.73;;;-0.70;99.90;;;;;;5057568;28;20030;-88
2022/12/10 00:53:55;;;;;;;53.75;24.77;;;-0.80;99.90;;;;;;5074865;28;20541;-88
2022/12/10 00:56:41;;;;;;;54.13;24.60;;;-0.80;99.90;;;;;;5072632;28;20052;-88
2022/12/10 00:59:06;;;;;;;62.63;26.98;;;-0.80;99.90;;;;;;5060590;28;20040;-88
2022/12/10 01:01:36;;;;;;;86.60;38.65;;;-0.80;99.90;;;;;;5088622;28;20041;-88
2022/12/10 01:04:05;;;;;;;57.10;26.23;;;-0.80;99.90;;;;;;5070888;28;20033;-88
2022/12/10 01:06:39;;;;;;;59.38;26.52;;;-0.80;99.90;;;;;;5074552;28;20039;-88
2022/12/10 01:09:09;;;;;;;58.28;25.25;;;-0.70;99.90;;;;;;5065153;28;20028;-89
2022/12/10 01:11:37;;;;;;;58.42;25.98;;;-0.80;99.90;;;;;;5074237;28;20027;-88
2022/12/10 01:14:06;;;;;;;53.70;24.48;;;-0.80;99.90;;;;;;5057942;28;20108;-87
2022/12/10 01:16:31;;;;;;;53.22;25.02;;;-0.80;99.90;;;;;;5073972;28;20025;-88
2022/12/10 01:18:58;;;;;;;54.50;24.20;;;-0.90;99.90;;;;;;5074288;28;20028;-88
2022/12/10 01:21:26;;;;;;;55.40;24.23;;;-0.90;99.90;;;;;;5090859;28;20035;-88
2022/12/10 01:23:52;;;;;;;55.05;23.17;;;-0.90;99.90;;;;;;5074121;28;20448;-88
2022/12/10 01:26:21;;;;;;;53.72;23.50;;;-0.80;99.90;;;;;;5075550;28;20115;-88
2022/12/10 01:28:48;;;;;;;52.58;23.50;;;-0.90;99.90;;;;;;5070595;28;20090;-88
2022/12/10 01:31:17;;;;;;;49.42;22.50;;;-0.80;99.90;;;;;;5070866;28;20025;-88
2022/12/10 01:33:52;;;;;;;47.53;22.13;;;-0.80;99.90;;;;;;5090624;28;20017;-88
2022/12/10 01:36:24;;;;;;;58.85;24.70;;;-0.80;99.90;;;;;;5084072;28;20058;-88
2022/12/10 01:38:50;;;;;;;50.30;23.38;;;-0.90;99.90;;;;;;5074003;28;20028;-88
2022/12/10 01:41:23;;;;;;;53.10;23.70;;;-0.80;99.90;;;;;;5067531;28;20373;-88
2022/12/10 01:44:03;;;;;;;52.53;25.23;;;-0.80;99.90;;;;;;5073904;28;20115;-88
2022/12/10 01:46:36;;;;;;;55.30;23.98;;;-0.80;99.90;;;;;;5061258;28;20028;-88
2022/12/10 01:49:06;;;;;;;53.47;24.75;;;-0.70;99.90;;;;;;5072805;28;20185;-88
2022/12/10 01:51:36;;;;;;;65.90;25.20;;;-0.80;99.90;;;;;;5073902;28;20032;-88
2022/12/10 01:54:04;;;;;;;55.60;25.30;;;-0.70;99.90;;;;;;5073563;28;20024;-88
2022/12/10 01:56:33;;;;;;;57.13;23.92;;;-0.80;99.90;;;;;;5087296;28;20101;-88
2022/12/10 01:58:58;;;;;;;53.92;24.38;;;-0.80;99.90;;;;;;5073569;28;20024;-88
2022/12/10 02:01:39;;;;;;;54.30;25.10;;;-0.80;99.90;;;;;;5048243;28;20548;-88
2022/12/10 02:04:52;;;;;;;56.03;23.65;;;-0.70;99.90;;;;;;5085908;28;20048;-88
2022/12/10 02:07:35;;;;;;;59.65;25.88;;;-0.80;99.90;;;;;;5069489;28;20045;-88
2022/12/10 02:10:20;;;;;;;52.85;23.35;;;-0.70;99.90;;;;;;5047187;28;20439;-88
2022/12/10 02:12:52;;;;;;;55.35;24.45;;;-0.80;99.90;;;;;;5050729;28;20096;-88
2022/12/10 02:15:44;;;;;;;57.58;25.33;;;-0.80;99.90;;;;;;5082578;28;20025;-88
2022/12/10 02:18:28;;;;;;;55.92;24.90;;;-0.70;99.90;;;;;;5063397;28;20352;-87
2022/12/10 02:20:58;;;;;;;59.13;25.88;;;-0.70;99.90;;;;;;5073309;28;20016;-88
2022/12/10 02:23:30;;;;;;;58.72;26.38;;;-0.70;99.90;;;;;;5067268;28;20040;-88
2022/12/10 02:26:03;;;;;;;53.97;25.27;;;-0.70;99.90;;;;;;5072933;28;20036;-88
2022/12/10 02:28:40;;;;;;;58.25;25.25;;;-0.70;99.90;;;;;;5068591;28;20036;-88
2022/12/10 02:31:11;;;;;;;57.75;24.67;;;-0.80;99.90;;;;;;5070090;28;20032;-87
2022/12/10 02:33:43;;;;;;;58.17;26.98;;;-0.80;99.90;;;;;;5072859;28;20025;-88
2022/12/10 02:36:10;;;;;;;61.20;25.80;;;-0.90;99.90;;;;;;5078717;28;20016;-89
2022/12/10 02:38:39;;;;;;;66.53;28.00;;;-0.90;99.90;;;;;;5058336;28;20116;-88
2022/12/10 02:41:10;;;;;;;59.40;27.02;;;-0.90;99.90;;;;;;5056412;28;20063;-88
2022/12/10 02:43:36;;;;;;;103.18;38.05;;;-0.90;99.90;;;;;;5085823;28;20028;-88
2022/12/10 02:46:04;;;;;;;109.38;38.00;;;-0.90;99.90;;;;;;5070664;28;20033;-88
2022/12/10 02:48:32;;;;;;;61.80;28.95;;;-0.90;99.90;;;;;;5066970;28;20047;-87
2022/12/10 02:50:58;;;;;;;59.45;26.88;;;-0.90;99.90;;;;;;5074426;28;20058;-87
2022/12/10 02:53:23;;;;;;;68.15;28.67;;;-0.80;99.90;;;;;;5068598;28;20025;-87
2022/12/10 02:56:14;;;;;;;68.70;28.80;;;-0.90;99.90;;;;;;5076224;28;20024;-87
2022/12/10 02:59:08;;;;;;;68.95;28.88;;;-0.90;99.90;;;;;;5073442;28;20021;-88
2022/12/10 03:01:56;;;;;;;59.28;26.45;;;-0.90;99.90;;;;;;5090921;28;20475;-87
2022/12/10 03:04:30;;;;;;;63.33;26.90;;;-0.90;99.90;;;;;;5057434;28;20043;-88
2022/12/10 03:07:06;;;;;;;58.38;26.02;;;-0.90;99.90;;;;;;5058238;28;20078;-88
2022/12/10 03:09:39;;;;;;;57.50;25.83;;;-0.80;99.90;;;;;;5070820;28;20036;-87
2022/12/10 03:12:29;;;;;;;57.70;24.70;;;-0.80;99.90;;;;;;5068145;28;20116;-88
2022/12/10 03:15:00;;;;;;;59.58;25.92;;;-0.80;99.90;;;;;;5066953;28;20387;-88
2022/12/10 03:17:28;;;;;;;;;;;-0.80;99.90;;;;;;5075505;28;20028;-87
2022/12/10 03:19:55;;;;;;;50.90;24.20;;;-0.80;99.90;;;;;;5087828;28;19908;-88
2022/12/10 03:22:21;;;;;;;54.85;25.75;;;-0.80;99.90;;;;;;5055451;28;20384;-88
2022/12/10 03:24:47;;;;;;;56.88;25.48;;;-0.90;99.90;;;;;;5090861;28;20054;-88
2022/12/10 03:27:16;;;;;;;52.42;23.67;;;-0.90;99.90;;;;;;5073089;28;20384;-88
2022/12/10 03:29:54;;;;;;;53.17;23.20;;;-0.80;99.90;;;;;;5076548;28;20379;-88
2022/12/10 03:32:23;;;;;;;51.63;23.92;;;-0.80;99.90;;;;;;5084514;28;20477;-88
2022/12/10 03:34:51;;;;;;;53.67;22.80;;;-0.80;99.90;;;;;;5076372;28;20012;-88
2022/12/10 03:37:17;;;;;;;59.97;24.73;;;-0.80;99.90;;;;;;5067889;28;20067;-87
2022/12/10 03:39:43;;;;;;;55.92;24.27;;;-0.80;99.90;;;;;;5068293;28;20035;-87
2022/12/10 03:42:09;;;;;;;53.78;24.23;;;-0.80;99.90;;;;;;5087035;28;20025;-88
2022/12/10 03:44:38;;;;;;;54.90;23.65;;;-0.80;99.90;;;;;;5072941;28;20020;-88
2022/12/10 03:47:07;;;;;;;56.08;23.83;;;-0.90;99.90;;;;;;5075884;28;20434;-88
2022/12/10 03:49:33;;;;;;;50.67;24.00;;;-0.90;99.90;;;;;;5050198;28;20063;-87
2022/12/10 03:51:59;;;;;;;49.90;22.40;;;-0.90;99.90;;;;;;5057939;28;20025;-88
2022/12/10 03:54:25;;;;;;;55.50;25.63;;;-0.90;99.90;;;;;;5075621;28;20060;-89
2022/12/10 03:56:51;;;;;;;59.40;25.45;;;-0.80;99.90;;;;;;5074764;28;20025;-88
2022/12/10 03:59:16;;;;;;;52.65;23.55;;;-0.80;99.90;;;;;;5072758;28;20591;-87
2022/12/10 04:01:44;;;;;;;51.13;23.77;;;-0.80;99.90;;;;;;5089281;28;20028;-88
2022/12/10 04:04:10;;;;;;;52.58;24.90;;;-0.80;99.90;;;;;;5082327;28;20051;-88
2022/12/10 04:06:39;;;;;;;64.97;27.95;;;-0.80;99.90;;;;;;5058464;28;20384;-87
2022/12/10 04:09:05;;;;;;;57.83;26.08;;;-0.80;99.90;;;;;;5067535;28;20384;-88
2022/12/10 04:12:06;;;;;;;58.10;26.02;;;-0.80;99.90;;;;;;5074538;28;20048;-88
2022/12/10 04:18:32;;;;;;;56.03;23.75;;;-0.80;99.90;;;;;;5085921;28;20440;-88
2022/12/10 04:26:54;;;;;;;51.13;24.35;;;-0.90;99.90;;;;;;5078358;28;20024;-88
2022/12/10 04:29:26;;;;;;;54.60;24.10;;;-0.90;99.90;;;;;;5074937;28;20028;-88
2022/12/10 04:31:52;;;;;;;50.80;24.23;;;-0.90;99.90;;;;;;5055298;28;20044;-88
2022/12/10 04:34:18;;;;;;;51.08;23.92;;;-1.00;99.90;;;;;;5055333;28;20025;-88
2022/12/10 04:36:44;;;;;;;53.72;25.52;;;-1.00;99.90;;;;;;5071923;28;20032;-88
2022/12/10 04:39:11;;;;;;;48.00;22.73;;;-1.00;99.90;;;;;;5067851;28;20032;-88
2022/12/10 04:41:39;;;;;;;58.67;23.73;;;-1.00;99.90;;;;;;5057394;28;20395;-88
2022/12/10 04:44:05;;;;;;;65.85;27.58;;;-1.10;99.90;;;;;;5073065;28;20029;-88
2022/12/10 04:46:31;;;;;;;50.03;23.98;;;-1.00;99.90;;;;;;5061086;28;20089;-88
2022/12/10 04:48:56;;;;;;;58.70;26.80;;;-1.00;99.90;;;;;;5074774;28;20397;-88
2022/12/10 04:52:09;;;;;;;53.50;24.27;;;-1.00;99.90;;;;;;5050802;28;20112;-88
2022/12/10 04:54:34;;;;;;;56.22;24.92;;;-1.10;99.90;;;;;;5066316;28;20110;-88
2022/12/10 04:57:00;;;;;;;59.75;26.25;;;-1.10;99.90;;;;;;5070597;28;20463;-88
2022/12/10 04:59:26;;;;;;;54.30;25.58;;;-1.00;99.90;;;;;;5068027;28;20043;-89
2022/12/10 05:01:52;;;;;;;51.78;23.70;;;-1.10;99.90;;;;;;5074500;28;20024;-88
2022/12/10 05:04:19;;;;;;;55.63;26.33;;;-1.00;99.90;;;;;;5056903;28;20036;-88
2022/12/10 05:06:47;;;;;;;52.60;24.27;;;-1.00;99.90;;;;;;5074334;28;20123;-88
2022/12/10 05:09:13;;;;;;;50.45;24.77;;;-1.00;99.90;;;;;;5076871;28;20036;-88
2022/12/10 05:11:39;;;;;;;54.38;24.85;;;-1.00;99.90;;;;;;5074340;28;20025;-88
2022/12/10 05:14:05;;;;;;;57.58;26.02;;;-1.10;99.90;;;;;;5074163;28;20024;-88
2022/12/10 05:16:41;;;;;;;60.60;26.63;;;-1.00;99.90;;;;;;5069028;28;20028;-88
2022/12/10 05:19:08;;;;;;;59.60;26.17;;;-1.00;99.90;;;;;;5070410;28;20028;-87
2022/12/10 05:24:18;;;;;;;58.53;27.15;;;-1.00;99.90;;;;;;5088263;28;20543;-88
2022/12/10 05:26:44;;;;;;;50.17;24.65;;;-1.00;99.90;;;;;;5071277;28;20025;-88
2022/12/10 05:29:12;;;;;;;53.50;24.48;;;-1.10;99.90;;;;;;5055833;28;20111;-88
2022/12/10 05:31:37;;;;;;;53.22;25.77;;;-1.10;99.90;;;;;;5068070;28;20119;-88
2022/12/10 05:34:04;;;;;;;55.55;23.80;;;-1.10;99.90;;;;;;5052587;28;20060;-88
2022/12/10 05:36:31;;;;;;;56.83;25.05;;;-1.10;99.90;;;;;;5073209;28;20038;-89
2022/12/10 05:38:57;;;;;;;50.30;24.20;;;-1.10;99.90;;;;;;5073130;28;20067;-88
2022/12/10 05:41:27;;;;;;;52.05;25.02;;;-1.10;99.90;;;;;;5078592;28;20215;-88
2022/12/10 05:43:54;;;;;;;77.78;31.70;;;-1.10;99.90;;;;;;5073821;28;20025;-88
2022/12/10 05:46:38;;;;;;;88.18;33.65;;;-1.10;99.90;;;;;;5059492;28;20035;-88
2022/12/10 05:49:05;;;;;;;68.05;27.92;;;-1.10;99.90;;;;;;5076691;28;20119;-88
2022/12/10 05:51:33;;;;;;;64.28;26.20;;;-1.10;99.90;;;;;;5060000;28;20028;-88
2022/12/10 05:54:01;;;;;;;58.75;26.00;;;-1.10;99.90;;;;;;5073141;28;20771;-88
2022/12/10 05:56:27;;;;;;;51.72;24.58;;;-1.10;99.90;;;;;;5066131;28;20025;-88
2022/12/10 05:58:57;;;;;;;53.65;25.27;;;-1.10;99.90;;;;;;5082609;28;20032;-88
2022/12/10 06:01:26;;;;;;;44.83;22.15;;;-1.00;99.90;;;;;;5084027;28;20029;-87
2022/12/10 06:03:52;;;;;;;55.33;26.27;;;-1.00;99.90;;;;;;5072349;28;20028;-88
2022/12/10 06:06:29;;;;;;;49.03;23.05;;;-1.00;99.90;;;;;;5072448;28;20299;-88
2022/12/10 06:08:55;;;;;;;59.53;24.38;;;-1.00;99.90;;;;;;5074154;28;20396;-87
2022/12/10 06:11:27;;;;;;;66.05;26.45;;;-1.00;99.90;;;;;;5064699;28;20043;-88
2022/12/10 06:13:54;;;;;;;56.00;25.80;;;-1.00;99.90;;;;;;5065813;28;20036;-88
2022/12/10 06:16:20;;;;;;;56.40;25.35;;;-1.00;99.90;;;;;;5070027;28;20036;-88
2022/12/10 06:18:46;;;;;;;53.20;25.70;;;-1.00;99.90;;;;;;5079664;28;20028;-88
2022/12/10 06:21:15;;;;;;;63.15;28.02;;;-1.00;99.90;;;;;;5049521;28;20031;-87
2022/12/10 06:23:56;;;;;;;65.38;27.98;;;-1.00;99.90;;;;;;5087171;28;20040;-88
2022/12/10 06:26:24;;;;;;;61.40;28.20;;;-1.00;99.90;;;;;;5053808;28;20437;-88
2022/12/10 06:28:51;;;;;;;63.15;26.17;;;-1.00;99.90;;;;;;5065147;28;20043;-88
2022/12/10 06:31:17;;;;;;;64.40;27.27;;;-1.00;99.90;;;;;;5072361;28;20025;-88
2022/12/10 06:33:43;;;;;;;56.92;27.33;;;-1.10;99.90;;;;;;5055178;28;20070;-87
2022/12/10 06:36:11;;;;;;;67.07;28.75;;;-1.10;99.90;;;;;;5071897;28;20468;-88
2022/12/10 06:38:38;;;;;;;77.15;32.47;;;-1.10;99.90;;;;;;5055246;28;20032;-87
2022/12/10 06:41:05;;;;;;;62.88;29.92;;;-1.20;99.90;;;;;;5072457;28;20032;-87
2022/12/10 06:43:31;;;;;;;69.93;31.50;;;-1.20;99.90;;;;;;5069854;28;20166;-87
2022/12/10 06:45:57;;;;;;;74.70;29.42;;;-1.20;99.90;;;;;;5073180;28;20481;-88
2022/12/10 06:48:23;;;;;;;68.75;30.73;;;-1.20;99.90;;;;;;5062307;28;20480;-87
2022/12/10 06:50:49;;;;;;;65.55;29.50;;;-1.20;99.90;;;;;;5062852;28;20392;-88
2022/12/10 06:53:15;;;;;;;69.85;29.67;;;-1.20;99.90;;;;;;5057353;28;20027;-88
2022/12/10 06:55:40;;;;;;;63.55;30.45;;;-1.20;99.90;;;;;;5067432;28;20464;-88
2022/12/10 06:58:06;;;;;;;74.57;32.05;;;-1.20;99.90;;;;;;5052078;28;20071;-87
2022/12/10 07:00:32;;;;;;;76.55;32.25;;;-1.20;99.90;;;;;;5071365;28;20031;-88
2022/12/10 07:02:57;;;;;;;74.00;30.65;;;-1.20;99.90;;;;;;5084798;28;20040;-88
2022/12/10 07:05:24;;;;;;;79.22;34.28;;;-1.20;99.90;;;;;;5076393;28;20451;-87
2022/12/10 07:07:50;;;;;;;63.72;28.17;;;-1.20;99.90;;;;;;5067457;28;20027;-87
2022/12/10 07:10:16;;;;;;;80.57;30.05;;;-1.20;99.90;;;;;;5060914;28;20033;-87
2022/12/10 07:12:43;;;;;;;73.10;29.00;;;-1.20;99.90;;;;;;5067096;28;20017;-88
2022/12/10 07:15:09;;;;;;;77.45;31.60;;;-1.30;99.90;;;;;;5069424;28;20070;-88
2022/12/10 07:17:34;;;;;;;70.40;31.27;;;-1.20;99.90;;;;;;5054622;28;20070;-87
2022/12/10 07:20:00;;;;;;;76.10;31.60;;;-1.30;99.90;;;;;;5066415;28;20025;-87
2022/12/10 07:22:25;;;;;;;77.45;31.08;;;-1.20;99.90;;;;;;5049885;28;20029;-87
2022/12/10 07:25:07;;;;;;;77.28;31.45;;;-1.20;99.90;;;;;;5078370;28;20036;-87
2022/12/10 07:27:32;;;;;;;;;;;-1.30;99.90;;;;;;5075810;28;20036;-87
2022/12/10 07:29:58;;;;;;;78.55;30.95;;;-1.30;99.90;;;;;;5088336;28;20283;-87
2022/12/10 07:32:24;;;;;;;82.97;33.47;;;-1.30;99.90;;;;;;5051967;28;20499;-87
2022/12/10 07:34:49;;;;;;;84.65;32.17;;;-1.30;99.90;;;;;;5047478;28;20450;-87
2022/12/10 07:37:15;;;;;;;88.30;34.22;;;-1.30;99.90;;;;;;5089386;28;20031;-87
2022/12/10 07:39:42;;;;;;;94.03;33.97;;;-1.30;99.90;;;;;;5089049;28;20392;-87
2022/12/10 07:42:08;;;;;;;97.95;35.33;;;-1.40;99.90;;;;;;5074403;28;20115;-87
2022/12/10 07:44:37;;;;;;;95.55;35.67;;;-1.40;99.90;;;;;;5072498;28;20430;-87
2022/12/10 07:47:14;;;;;;;94.22;35.50;;;-1.40;99.90;;;;;;5045560;28;20040;-87
2022/12/10 07:49:40;;;;;;;92.00;33.50;;;-1.40;99.90;;;;;;5090802;28;20036;-88
2022/12/10 07:52:06;;;;;;;100.07;35.67;;;-1.50;99.90;;;;;;5057915;28;20468;-87
2022/12/10 07:54:32;;;;;;;95.47;33.28;;;-1.50;99.90;;;;;;5049953;28;20028;-88
2022/12/10 07:56:57;;;;;;;91.80;34.15;;;-1.40;99.90;;;;;;5067616;28;20067;-87
2022/12/10 07:59:23;;;;;;;106.72;35.63;;;-1.50;99.90;;;;;;5067046;28;20028;-88
2022/12/10 08:01:49;;;;;;;106.20;37.80;;;-1.50;99.90;;;;;;5072313;28;20094;-88
2022/12/10 08:04:15;;;;;;;101.07;36.08;;;-1.40;99.90;;;;;;5066376;28;20037;-88
2022/12/10 08:06:40;;;;;;;110.10;36.15;;;-1.40;99.90;;;;;;5055997;28;20134;-88
2022/12/10 08:09:06;;;;;;;99.32;34.03;;;-1.40;99.90;;;;;;5053832;28;20045;-88
2022/12/10 08:11:32;;;;;;;93.60;35.13;;;-1.30;99.90;;;;;;5071099;28;20498;-88
2022/12/10 08:13:58;;;;;;;96.22;34.22;;;-1.30;99.90;;;;;;5073780;28;20020;-88
2022/12/10 08:16:26;;;;;;;98.05;34.75;;;-1.30;99.90;;;;;;5070434;28;20032;-88
2022/12/10 08:19:29;;;;;;;101.82;35.97;;;-1.30;99.90;;;;;;5055900;28;20020;-88
2022/12/10 08:21:55;;;;;;;100.28;35.55;;;-1.30;99.90;;;;;;5068342;28;20535;-87
2022/12/10 08:24:20;;;;;;;112.18;39.05;;;-1.30;99.90;;;;;;5066353;28;20063;-88
2022/12/10 08:27:08;;;;;;;120.22;40.35;;;-1.20;99.90;;;;;;5064911;28;20019;-89
2022/12/10 08:29:34;;;;;;;101.65;37.58;;;-1.10;99.90;;;;;;5072853;28;20036;-89
2022/12/10 08:32:00;;;;;;;88.90;31.85;;;-1.00;99.90;;;;;;5069127;28;20029;-89
2022/12/10 08:34:25;;;;;;;100.97;37.85;;;-1.00;99.90;;;;;;5065309;28;20749;-88
2022/12/10 08:36:52;;;;;;;95.07;34.15;;;-1.10;99.90;;;;;;5067443;28;20516;-87
2022/12/10 08:39:24;;;;;;;89.55;32.55;;;-1.00;99.90;;;;;;5090018;28;20035;-88
2022/12/10 08:41:50;;;;;;;86.82;33.00;;;-0.90;99.90;;;;;;5078830;28;20480;-88
2022/12/10 08:44:16;;;;;;;87.18;32.80;;;-0.90;99.90;;;;;;5071907;28;20017;-88
2022/12/10 08:46:57;;;;;;;87.70;33.15;;;-1.00;99.90;;;;;;5061044;28;20116;-88
2022/12/10 08:49:23;;;;;;;87.82;32.58;;;-0.90;99.90;;;;;;5073405;28;20372;-88
2022/12/10 08:51:48;;;;;;;86.85;31.88;;;-0.90;99.90;;;;;;5073252;28;20040;-88
2022/12/10 08:54:14;;;;;;;84.78;29.60;;;-1.00;99.90;;;;;;5067577;28;20020;-87
2022/12/10 08:56:40;;;;;;;75.70;29.90;;;-1.00;99.90;;;;;;5064723;28;20048;-88
2022/12/10 08:59:06;;;;;;;78.75;30.08;;;-0.90;99.90;;;;;;5078143;28;20029;-87
2022/12/10 09:01:32;;;;;;;81.15;30.65;;;-1.00;99.90;;;;;;5077985;28;20033;-88
2022/12/10 09:03:58;;;;;;;79.63;30.90;;;-1.00;99.90;;;;;;5074340;28;20139;-88
2022/12/10 09:06:24;;;;;;;73.20;28.67;;;-1.00;99.90;;;;;;5054112;28;20075;-88
2022/12/10 09:08:52;;;;;;;76.30;29.40;;;-1.00;99.90;;;;;;5081019;28;20067;-87
2022/12/10 09:11:28;;;;;;;78.85;30.08;;;-1.00;99.90;;;;;;5078753;28;20087;-88
2022/12/10 09:13:54;;;;;;;70.85;29.10;;;-1.00;99.90;;;;;;5063707;28;20032;-87
2022/12/10 09:16:21;;;;;;;73.80;29.58;;;-1.00;99.90;;;;;;5078634;28;20388;-87
2022/12/10 09:18:47;;;;;;;71.05;27.40;;;-1.00;99.90;;;;;;5063997;28;20035;-88
2022/12/10 09:21:16;;;;;;;68.38;28.77;;;-0.90;99.90;;;;;;5074555;28;20029;-88
2022/12/10 09:23:43;;;;;;;68.53;27.73;;;-0.90;99.90;;;;;;5070103;28;20395;-88
2022/12/10 09:26:16;;;;;;;69.53;26.25;;;-1.00;99.90;;;;;;5081009;28;20024;-87
2022/12/10 09:28:43;;;;;;;66.03;25.98;;;-1.00;99.90;;;;;;5034025;28;20065;-88
2022/12/10 09:31:10;;;;;;;72.53;27.00;;;-1.00;99.90;;;;;;5087118;28;20036;-88
2022/12/10 09:33:37;;;;;;;68.75;27.98;;;-1.00;99.90;;;;;;5075627;28;20361;-88
2022/12/10 09:36:06;;;;;;;67.85;27.77;;;-1.00;99.90;;;;;;5073032;28;20078;-87
2022/12/10 09:38:40;;;;;;;70.90;28.88;;;-1.00;99.90;;;;;;5061017;28;20036;-87
2022/12/10 09:41:19;;;;;;;72.30;28.92;;;-0.90;99.90;;;;;;5078595;28;20480;-88
2022/12/10 09:44:08;;;;;;;72.47;29.30;;;-0.70;99.90;;;;;;5070742;28;20032;-88
2022/12/10 09:46:55;;;;;;;60.97;25.33;;;-0.50;99.90;;;;;;5077716;28;20044;-87
2022/12/10 09:49:36;;;;;;;63.92;26.17;;;-0.20;99.90;;;;;;5077645;28;20031;-88
2022/12/10 09:52:04;;;;;;;54.58;24.23;;;0.20;99.90;;;;;;5067032;28;20028;-88
2022/12/10 09:54:37;;;;;;;49.95;22.70;;;0.30;99.90;;;;;;5084120;28;20043;-88
2022/12/10 09:57:06;;;;;;;52.25;23.48;;;0.20;99.90;;;;;;5066619;28;20025;-88
2022/12/10 09:59:36;;;;;;;49.85;23.30;;;0.20;99.90;;;;;;5071293;28;20025;-88
2022/12/10 10:02:30;;;;;;;50.10;23.92;;;0.00;99.90;;;;;;5059215;28;20059;-88
2022/12/10 10:05:08;;;;;;;61.58;25.15;;;-0.10;99.90;;;;;;5071123;28;20068;-88
2022/12/10 10:07:43;;;;;;;97.65;36.03;;;-0.10;99.90;;;;;;5083806;28;20020;-88
2022/12/10 10:10:37;;;;;;;61.15;25.80;;;-0.10;99.90;;;;;;5047349;28;20024;-88
2022/12/10 10:13:31;;;;;;;59.22;26.02;;;-0.20;99.90;;;;;;5070562;28;20055;-88
2022/12/10 10:16:13;;;;;;;56.53;24.67;;;-0.40;99.90;;;;;;5056082;28;20016;-88
2022/12/10 10:18:43;;;;;;;49.58;22.75;;;-0.60;99.90;;;;;;5073010;28;20146;-87
2022/12/10 10:21:33;;;;;;;56.10;24.50;;;-0.70;99.90;;;;;;5073559;28;20016;-88
2022/12/10 10:23:59;;;;;;;58.10;23.95;;;-0.90;99.90;;;;;;5067798;28;20480;-88
2022/12/10 10:26:26;;;;;;;59.75;24.08;;;-0.80;99.90;;;;;;5072290;28;20029;-88
2022/12/10 10:29:07;;;;;;;57.67;24.15;;;-0.90;99.90;;;;;;5059286;28;20036;-88
2022/12/10 10:31:35;;;;;;;56.28;22.70;;;-0.90;99.90;;;;;;5071782;28;20408;-88
2022/12/10 10:34:22;;;;;;;48.67;23.23;;;-0.80;99.90;;;;;;5056201;28;20124;-88
2022/12/10 10:36:56;;;;;;;51.53;22.50;;;-0.70;99.90;;;;;;5055876;28;20480;-88
2022/12/10 10:39:28;;;;;;;58.63;23.25;;;-0.90;99.90;;;;;;5084258;28;20028;-88
2022/12/10 10:41:56;;;;;;;53.17;22.27;;;-0.90;99.90;;;;;;5070376;28;20028;-88
2022/12/10 10:44:25;;;;;;;49.15;22.65;;;-1.00;99.90;;;;;;5060434;28;20028;-88
2022/12/10 10:46:52;;;;;;;54.13;22.73;;;-1.00;99.90;;;;;;5068095;28;20035;-88
2022/12/10 10:49:21;;;;;;;66.68;27.00;;;-1.00;99.90;;;;;;5075518;28;20035;-88
2022/12/10 10:51:47;;;;;;;61.45;25.83;;;-1.00;99.90;;;;;;5085640;28;20391;-88
2022/12/10 10:54:37;;;;;;;56.95;24.13;;;-0.90;99.90;;;;;;5061443;28;20124;-88
2022/12/10 10:57:36;;;;;;;56.38;23.83;;;-0.80;99.90;;;;;;5083995;28;20109;-88
2022/12/10 11:00:18;;;;;;;57.85;24.08;;;-0.70;99.90;;;;;;5074731;28;20036;-88
2022/12/10 11:02:44;;;;;;;51.47;21.48;;;-0.70;99.90;;;;;;5072703;28;20061;-88
2022/12/10 11:05:26;;;;;;;46.72;21.38;;;-0.70;99.90;;;;;;5069616;28;20028;-88
2022/12/10 11:08:04;;;;;;;41.55;18.35;;;-0.60;99.90;;;;;;5073666;28;20029;-89
2022/12/10 11:10:30;;;;;;;43.47;19.15;;;-0.30;99.90;;;;;;5079580;28;20111;-88
2022/12/10 11:13:04;;;;;;;39.47;18.75;;;-0.10;99.90;;;;;;5083516;28;20029;-88
2022/12/10 11:15:39;;;;;;;38.80;17.25;;;0.20;99.90;;;;;;5086585;28;20024;-88
2022/12/10 11:18:24;;;;;;;37.30;16.52;;;0.20;99.90;;;;;;5061183;28;20075;-88
2022/12/10 11:21:16;;;;;;;33.92;15.90;;;0.20;99.90;;;;;;5078886;28;20039;-89
2022/12/10 11:23:46;;;;;;;32.92;15.13;;;0.40;99.90;;;;;;5056214;28;20060;-89
2022/12/10 11:26:33;;;;;;;32.92;13.85;;;0.40;99.90;;;;;;5088965;28;20620;-88
2022/12/10 11:29:02;;;;;;;30.48;13.30;;;0.40;99.90;;;;;;5058291;28;20029;-88
2022/12/10 11:31:39;;;;;;;32.97;14.68;;;0.40;99.90;;;;;;5088409;28;20071;-88
2022/12/10 11:34:36;;;;;;;31.75;14.27;;;0.30;99.90;;;;;;5068428;28;20077;-88
2022/12/10 11:37:16;;;;;;;30.55;13.60;;;0.60;99.90;;;;;;5061982;28;20116;-88
2022/12/10 11:39:59;;;;;;;29.30;13.52;;;0.90;99.90;;;;;;5068977;28;20056;-88
2022/12/10 11:42:47;;;;;;;29.88;13.75;;;1.00;99.90;;;;;;5074690;28;20527;-88
2022/12/10 11:45:18;;;;;;;31.15;13.77;;;1.10;99.90;;;;;;5076994;28;20039;-88
2022/12/10 11:47:52;;;;;;;25.05;13.02;;;0.60;99.90;;;;;;5072305;28;20063;-88
2022/12/10 11:50:17;;;;;;;27.52;12.63;;;0.10;99.90;;;;;;5068748;28;20053;-88
2022/12/10 11:53:09;;;;;;;30.95;13.93;;;-0.10;99.90;;;;;;5071554;28;20395;-88
2022/12/10 11:55:53;;;;;;;29.40;14.00;;;-0.10;99.90;;;;;;5054527;28;20025;-88
2022/12/10 11:58:32;;;;;;;30.58;13.85;;;-0.10;99.90;;;;;;5047986;28;20025;-88
2022/12/10 12:01:35;;;;;;;29.05;13.77;;;-0.10;99.90;;;;;;5069156;28;20032;-88
2022/12/10 12:04:38;;;;;;;34.20;14.00;;;-0.10;99.90;;;;;;5056851;28;20028;-89
2022/12/10 12:07:28;;;;;;;28.48;12.73;;;-0.10;99.90;;;;;;5067751;28;20119;-88
2022/12/10 12:10:12;;;;;;;29.85;12.73;;;-0.30;99.90;;;;;;5073751;28;20033;-88
2022/12/10 12:12:43;;;;;;;29.90;12.07;;;-0.40;99.90;;;;;;5068173;28;20349;-88
2022/12/10 12:15:16;;;;;;;;;;;-0.60;99.90;;;;;;5064428;28;20025;-88
2022/12/10 12:17:48;;;;;;;28.90;12.60;;;-0.60;99.90;;;;;;5086389;28;19909;-88
2022/12/10 12:20:32;;;;;;;40.00;14.48;;;-0.70;99.90;;;;;;5073699;28;20024;-88
2022/12/10 12:23:06;;;;;;;32.65;14.57;;;-0.70;99.90;;;;;;5076509;28;20047;-88
2022/12/10 12:25:51;;;;;;;33.58;14.38;;;-0.70;99.90;;;;;;5062027;28;20139;-89
2022/12/10 12:29:00;;;;;;;30.67;13.50;;;-0.70;99.90;;;;;;5081813;28;20024;-88
2022/12/10 12:31:32;;;;;;;29.75;13.10;;;-0.70;99.90;;;;;;5052760;28;20175;-88
2022/12/10 12:34:20;;;;;;;29.60;12.35;;;-0.60;99.90;;;;;;5073204;28;20272;-88
2022/12/10 12:36:47;;;;;;;34.75;14.70;;;-0.60;99.90;;;;;;5041345;28;20369;-87
2022/12/10 12:39:39;;;;;;;33.08;14.68;;;-0.50;99.90;;;;;;5078571;28;20028;-87
2022/12/10 12:42:25;;;;;;;31.05;13.40;;;-0.50;99.90;;;;;;5072216;28;20033;-87
2022/12/10 12:45:03;;;;;;;27.63;12.90;;;-0.60;99.90;;;;;;5073748;28;20033;-88
2022/12/10 12:47:37;;;;;;;34.38;15.77;;;-0.60;99.90;;;;;;5085598;28;20085;-88
2022/12/10 12:50:05;;;;;;;30.33;12.88;;;-0.60;99.90;;;;;;5066236;28;20024;-88
2022/12/10 12:52:43;;;;;;;30.58;14.65;;;-0.60;99.90;;;;;;5095605;28;20110;-89
2022/12/10 12:58:55;;;;;;;37.78;14.93;;;-0.40;99.90;;;;;;5075544;28;20029;-88
2022/12/10 13:01:43;;;;;;;37.88;15.77;;;-0.40;99.90;;;;;;5059108;28;20028;-88
2022/12/10 13:04:10;;;;;;;37.88;15.73;;;-0.20;99.90;;;;;;5090906;28;20455;-88
2022/12/10 13:06:38;;;;;;;30.10;13.82;;;0.00;99.90;;;;;;5078998;28;20029;-88